Time;durP1;ratioP1;P1;durP2;ratioP2;P2;SDS_P1;SDS_P2;PMS_P1;PMS_P2;Temp;Humidity;BMP_temperature;BMP_pressure;BME280_temperature;BME280_humidity;BME280_pressure;Samples;Min_cycle;Max_cycle;Signal;HPM_P1;HPM_P2
2022/02/02 00:00:59;;;;;;;;;;;;;;;;;;5106250;28;19918;-85
2022/02/02 00:03:26;;;;;;;;;;;;;;;;;;5098098;28;19908;-85
2022/02/02 00:06:03;;;;;;;;;;;;;;;;;;5116392;28;19908;-85
2022/02/02 00:08:56;;;;;;;;;;;;;;;;;;5116320;28;19908;-86
2022/02/02 00:19:03;;;;;;;;;;;;;;;;;;5116076;28;19964;-85
2022/02/02 00:21:42;;;;;;;;;;;;;;;;;;5115977;28;20278;-85
2022/02/02 00:24:19;;;;;;;;;;;;;;;;;;5097645;28;19911;-85
2022/02/02 00:26:45;;;;;;;;;;;;;;;;;;5097470;28;20424;-85
2022/02/02 00:29:16;;;;;;;;;;;;;;;;;;5095807;28;19942;-85
2022/02/02 00:31:47;;;;;;;;;;;;;;;;;;5057143;28;20441;-85
2022/02/02 00:34:17;;;;;;;;;;;;;;;;;;5074038;28;20011;-86
2022/02/02 00:39:11;;;;;;;;;;;;;;;;;;5074816;28;20026;-85
2022/02/02 00:41:36;;;;;;;;;;;;;;;;;;5074763;28;20375;-85
2022/02/02 00:44:03;;;;;;;;;;;;;;;;;;5075086;28;19956;-85
2022/02/02 00:46:29;;;;;;;;;;;;;;;;;;5073781;28;19959;-86
2022/02/02 00:49:00;;;;;;;;;;;;;;;;;;5073493;28;19909;-85
2022/02/02 00:51:27;;;;;;;;;;;;;;;;;;5074567;28;19914;-85
2022/02/02 00:53:53;;;;;;;;;;;;;;;;;;5076253;28;19909;-85
2022/02/02 00:56:18;;;;;;;;;;;;;;;;;;5115572;28;19915;-85
2022/02/02 00:58:43;;;;;;;;;;;;;;;;;;5097017;28;19912;-85
2022/02/02 01:01:08;;;;;;;;;;;;;;;;;;5115140;28;19915;-85
2022/02/02 01:03:33;;;;;;;;;;;;;;;;;;5096899;28;19915;-85
2022/02/02 01:06:00;;;;;;;;;;;;;;;;;;5115194;28;19934;-85
2022/02/02 01:08:47;;;;;;;;;;;;;;;;;;5096898;28;19919;-85
2022/02/02 01:19:39;;;;;;;;;;;;;;;;;;5114876;28;19912;-85
2022/02/02 01:29:56;;;;;;;;;;;;;;;;;;5114743;28;20411;-85
2022/02/02 01:32:21;;;;;;;;;;;;;;;;;;5114709;28;20347;-85
2022/02/02 01:34:46;;;;;;;;;;;;;;;;;;5096475;28;20428;-85
2022/02/02 01:37:12;;;;;;;;;;;;;;;;;;5096417;28;19954;-85
2022/02/02 01:39:38;;;;;;;;;;;;;;;;;;5096261;28;20374;-85
2022/02/02 01:42:09;;;;;;;;;;;;;;;;;;5096065;28;20404;-85
2022/02/02 01:47:03;;;;;;;;;;;;;;;;;;5092890;28;19914;-86
2022/02/02 01:57:25;;;;;;;;;;;;;;;;;;5092559;28;20461;-85
2022/02/02 01:59:50;;;;;;;;;;;;;;;;;;5073827;28;19970;-86
2022/02/02 02:02:15;;;;;;;;;;;;;;;;;;5074493;28;19912;-85
2022/02/02 02:04:40;;;;;;;;;;;;;;;;;;5071499;28;19921;-85
2022/02/02 02:07:05;;;;;;;;;;;;;;;;;;5054061;28;19912;-85
2022/02/02 02:09:31;;;;;;;;;;;;;;;;;;5054382;28;19912;-85
2022/02/02 02:11:56;;;;;;;;;;;;;;;;;;5054540;28;20356;-85
2022/02/02 02:16:46;;;;;;;;;;;;;;;;;;5077523;28;19912;-85
2022/02/02 02:19:11;;;;;;;;;;;;;;;;;;5075247;28;20340;-85
2022/02/02 02:21:36;;;;;;;;;;;;;;;;;;5075213;28;19969;-85
2022/02/02 02:24:02;;;;;;;;;;;;;;;;;;5075419;28;19908;-85
2022/02/02 02:26:28;;;;;;;;;;;;;;;;;;5093615;28;19915;-85
2022/02/02 02:31:35;;;;;;;;;;;;;;;;;;5093878;28;19923;-85
2022/02/02 02:35:17;;;;;;;;;;;;;;;;;;5056424;28;19922;-85
2022/02/02 02:55:54;;;;;;;;;;;;;;;;;;5073503;28;19962;-85
2022/02/02 03:29:53;;;;;;;;;;;;;;;;;;5117328;28;20003;-85
2022/02/02 03:52:30;;;;;;;;;;;;;;;;;;5077018;28;20276;-85
2022/02/02 04:05:46;;;;;;;;;;;;;;;;;;5003834;28;20005;-85
2022/02/02 04:08:28;;;;;;;;;;;;;;;;;;5075669;28;19920;-85
2022/02/02 04:10:58;;;;;;;;;;;;;;;;;;5074281;28;19908;-86
2022/02/02 04:51:35;;;;;;;;;;;;;;;;;;5074738;28;19958;-85
2022/02/02 04:54:18;;;;;;;;;;;;;;;;;;5066013;28;19961;-85
2022/02/02 05:09:19;;;;;;;;;;;;;;;;;;5113777;28;19912;-85
2022/02/02 05:25:34;;;;;;;;;;;;;;;;;;5104797;28;19913;-85
2022/02/02 05:29:21;;;;;;;;;;;;;;;;;;5094183;28;19915;-85
2022/02/02 05:50:11;;;;;;;;;;;;;;;;;;5094003;28;20275;-85
2022/02/02 05:52:36;;;;;;;;;;;;;;;;;;5076503;28;19919;-85
2022/02/02 05:55:01;;;;;;;;;;;;;;;;;;5095224;28;19908;-85
2022/02/02 05:57:26;;;;;;;;;;;;;;;;;;5096014;28;19915;-85
2022/02/02 05:59:51;;;;;;;;;;;;;;;;;;5114146;28;20013;-85
2022/02/02 06:02:16;;;;;;;;;;;;;;;;;;5094591;28;19916;-85
2022/02/02 06:04:42;;;;;;;;;;;;;;;;;;5089755;28;19924;-85
2022/02/02 06:07:07;;;;;;;;;;;;;;;;;;5072241;28;19915;-85
2022/02/02 06:09:36;;;;;;;;;;;;;;;;;;5073511;28;19920;-85
2022/02/02 06:12:01;;;;;;;;;;;;;;;;;;5086623;28;19919;-85
2022/02/02 06:14:26;;;;;;;;;;;;;;;;;;5088853;28;19909;-85
2022/02/02 06:16:51;;;;;;;;;;;;;;;;;;5088734;28;20314;-86
2022/02/02 06:19:16;;;;;;;;;;;;;;;;;;5088951;28;19912;-85
2022/02/02 06:21:41;;;;;;;;;;;;;;;;;;5086450;28;20368;-85
2022/02/02 06:24:07;;;;;;;;;;;;;;;;;;5073204;28;19912;-85
2022/02/02 06:26:32;;;;;;;;;;;;;;;;;;5055658;28;20003;-85
2022/02/02 06:28:57;;;;;;;;;;;;;;;;;;5055365;28;19909;-86
2022/02/02 06:31:23;;;;;;;;;;;;;;;;;;5077337;28;20288;-86
2022/02/02 06:33:48;;;;;;;;;;;;;;;;;;5082127;28;19923;-85
2022/02/02 06:36:13;;;;;;;;;;;;;;;;;;5072248;28;19919;-85
2022/02/02 06:38:38;;;;;;;;;;;;;;;;;;5071927;28;19916;-86
2022/02/02 06:41:03;;;;;;;;;;;;;;;;;;5071658;28;19909;-85
2022/02/02 06:43:28;;;;;;;;;;;;;;;;;;5071744;28;20022;-85
2022/02/02 06:45:55;;;;;;;;;;;;;;;;;;5077580;28;19912;-85
2022/02/02 06:48:20;;;;;;;;;;;;;;;;;;5069620;28;19920;-85
2022/02/02 06:50:50;;;;;;;;;;;;;;;;;;5092948;28;19981;-85
2022/02/02 06:55:49;;;;;;;;;;;;;;;;;;5097327;28;19908;-85
2022/02/02 06:58:25;;;;;;;;;;;;;;;;;;5076838;28;20008;-85
2022/02/02 07:03:26;;;;;;;;;;;;;;;;;;5097465;28;19912;-85
2022/02/02 07:16:16;;;;;;;;;;;;;;;;;;5078905;28;19917;-85
2022/02/02 07:19:05;;;;;;;;;;;;;;;;;;5078744;28;20079;-85
2022/02/02 07:34:32;;;;;;;;;;;;;;;;;;5095155;28;19927;-85
2022/02/02 07:37:00;;;;;;;;;;;;;;;;;;5074926;28;19981;-85
2022/02/02 07:39:25;;;;;;;;;;;;;;;;;;5074716;28;19916;-85
2022/02/02 07:41:50;;;;;;;;;;;;;;;;;;5074203;28;19916;-85
2022/02/02 07:44:19;;;;;;;;;;;;;;;;;;5076029;28;20006;-85
2022/02/02 07:46:44;;;;;;;;;;;;;;;;;;5075120;28;19919;-85
2022/02/02 07:49:09;;;;;;;;;;;;;;;;;;5074977;28;20015;-86
2022/02/02 07:51:35;;;;;;;;;;;;;;;;;;5071797;28;19912;-85
2022/02/02 07:54:02;;;;;;;;;;;;;;;;;;5092509;28;19916;-84
2022/02/02 07:56:34;;;;;;;;;;;;;;;;;;5093448;28;19912;-85
2022/02/02 07:59:14;;;;;;;;;;;;;;;;;;5077859;28;20319;-85
2022/02/02 08:01:39;;;;;;;;;;;;;;;;;;5084423;28;19923;-85
2022/02/02 08:04:04;;;;;;;;;;;;;;;;;;5098263;28;19908;-85
2022/02/02 08:06:29;;;;;;;;;;;;;;;;;;5083429;28;19916;-85
2022/02/02 08:08:54;;;;;;;;;;;;;;;;;;5077799;28;19915;-85
2022/02/02 08:11:29;;;;;;;;;;;;;;;;;;5083291;28;20687;-85
2022/02/02 08:13:58;;;;;;;;;;;;;;;;;;5065996;28;20391;-85
2022/02/02 08:16:23;;;;;;;;;;;;;;;;;;5074176;28;19951;-85
2022/02/02 08:18:51;;;;;;;;;;;;;;;;;;5097306;28;19962;-86
2022/02/02 08:21:16;;;;;;;;;;;;;;;;;;5096315;28;19912;-85
2022/02/02 08:23:41;;;;;;;;;;;;;;;;;;5116145;28;19919;-85
2022/02/02 08:26:12;;;;;;;;;;;;;;;;;;5096482;28;20291;-85
2022/02/02 08:28:38;;;;;;;;;;;;;;;;;;5082651;28;20381;-85
2022/02/02 08:31:03;;;;;;;;;;;;;;;;;;5077576;28;19962;-85
2022/02/02 08:33:34;;;;;;;;;;;;;;;;;;5076674;28;19919;-85
2022/02/02 08:35:59;;;;;;;;;;;;;;;;;;5077042;28;20291;-86
2022/02/02 08:40:59;;;;;;;;;;;;;;;;;;5095461;28;19912;-82
2022/02/02 08:46:31;;;;;;;;;;;;;;;;;;5064483;28;19916;-84
2022/02/02 08:48:57;;;;;;;;;;;;;;;;;;5079732;28;19998;-85
2022/02/02 08:51:26;;;;;;;;;;;;;;;;;;5076361;28;19908;-85
2022/02/02 08:59:00;;;;;;;;;;;;;;;;;;5098485;28;19916;-84
2022/02/02 09:01:29;;;;;;;;;;;;;;;;;;5075565;28;19912;-84
2022/02/02 09:06:38;;;;;;;;;;;;;;;;;;5094230;28;19934;-90
2022/02/02 09:09:16;;;;;;;;;;;;;;;;;;5063131;28;19913;-87
2022/02/02 09:25:17;;;;;;;;;;;;;;;;;;5077677;28;20008;-88
2022/02/02 09:35:38;;;;;;;;;;;;;;;;;;5097360;28;19916;-89
2022/02/02 09:38:03;;;;;;;;;;;;;;;;;;5079401;28;20321;-91
2022/02/02 09:42:55;;;;;;;;;;;;;;;;;;5096894;28;19912;-90
2022/02/02 09:45:22;;;;;;;;;;;;;;;;;;5076563;28;20394;-90
2022/02/02 09:47:56;;;;;;;;;;;;;;;;;;5095522;28;19912;-90
2022/02/02 09:50:28;;;;;;;;;;;;;;;;;;5096192;28;19923;-90
2022/02/02 09:52:57;;;;;;;;;;;;;;;;;;5095788;28;19960;-90
2022/02/02 10:05:49;;;;;;;;;;;;;;;;;;5078526;28;20347;-90
2022/02/02 10:11:21;;;;;;;;;;;;;;;;;;5073868;28;19936;-90
2022/02/02 10:13:52;;;;;;;;;;;;;;;;;;5098880;28;19955;-90
2022/02/02 10:16:18;;;;;;;;;;;;;;;;;;5076385;28;20352;-90
2022/02/02 10:18:43;;;;;;;;;;;;;;;;;;5058465;28;19973;-90
2022/02/02 10:21:08;;;;;;;;;;;;;;;;;;5102168;28;19911;-90
2022/02/02 10:23:33;;;;;;;;;;;;;;;;;;5094326;28;19908;-90
2022/02/02 10:25:58;;;;;;;;;;;;;;;;;;5075439;28;20344;-90
2022/02/02 10:28:23;;;;;;;;;;;;;;;;;;5074257;28;19991;-90
2022/02/02 10:30:48;;;;;;;;;;;;;;;;;;5088324;28;19922;-91
2022/02/02 10:33:14;;;;;;;;;;;;;;;;;;5075829;28;20271;-90
2022/02/02 10:35:39;;;;;;;;;;;;;;;;;;5077727;28;19917;-89
2022/02/02 10:38:08;;;;;;;;;;;;;;;;;;5090838;28;19908;-90
2022/02/02 10:40:39;;;;;;;;;;;;;;;;;;5076358;28;19920;-91
2022/02/02 10:43:04;;;;;;;;;;;;;;;;;;5080360;28;19912;-90
2022/02/02 10:45:31;;;;;;;;;;;;;;;;;;5079902;28;19919;-90
2022/02/02 10:48:11;;;;;;;;;;;;;;;;;;5061740;28;19913;-90
2022/02/02 10:50:46;;;;;;;;;;;;;;;;;;5105220;28;20301;-88
2022/02/02 11:06:38;;;;;;;;;;;;;;;;;;5109817;28;19914;-91
2022/02/02 11:09:03;;;;;;;;;;;;;;;;;;5064517;28;19962;-92
2022/02/02 11:11:28;;;;;;;;;;;;;;;;;;5092834;28;19931;-91
2022/02/02 11:13:53;;;;;;;;;;;;;;;;;;5095419;28;19911;-92
2022/02/02 11:16:18;;;;;;;;;;;;;;;;;;5095405;28;19951;-91
2022/02/02 11:18:43;;;;;;;;;;;;;;;;;;5092766;28;20004;-92
2022/02/02 11:21:08;;;;;;;;;;;;;;;;;;5075528;28;19982;-92
2022/02/02 11:23:33;;;;;;;;;;;;;;;;;;5075440;28;20049;-91
2022/02/02 11:25:59;;;;;;;;;;;;;;;;;;5075486;28;19908;-92
2022/02/02 11:28:25;;;;;;;;;;;;;;;;;;5075333;28;20552;-91
2022/02/02 11:30:51;;;;;;;;;;;;;;;;;;5078647;28;19917;-91
2022/02/02 11:33:16;;;;;;;;;;;;;;;;;;5075184;28;19981;-91
2022/02/02 11:38:08;;;;;;;;;;;;;;;;;;5097012;28;19908;-91
2022/02/02 11:40:41;;;;;;;;;;;;;;;;;;5078938;28;20003;-92
2022/02/02 11:43:13;;;;;;;;;;;;;;;;;;5071430;28;20391;-92
2022/02/02 11:45:40;;;;;;;;;;;;;;;;;;5092301;28;19908;-92
2022/02/02 11:48:20;;;;;;;;;;;;;;;;;;5058489;28;20420;-92
2022/02/02 11:50:46;;;;;;;;;;;;;;;;;;5058542;28;19916;-92
2022/02/02 11:53:11;;;;;;;;;;;;;;;;;;5092323;28;19912;-92
2022/02/02 11:55:42;;;;;;;;;;;;;;;;;;5076795;28;19974;-92
2022/02/02 11:58:18;;;;;;;;;;;;;;;;;;5078996;28;19974;-92
2022/02/02 12:00:50;;;;;;;;;;;;;;;;;;5068543;28;19958;-92
2022/02/02 12:03:36;;;;;;;;;;;;;;;;;;5058804;28;20048;-92
2022/02/02 12:06:17;;;;;;;;;;;;;;;;;;5074006;28;19934;-92
2022/02/02 12:19:50;;;;;;;;;;;;;;;;;;5080872;28;20450;-88
2022/02/02 12:47:05;;;;;;;;;;;;;;;;;;5095041;28;19920;-91
2022/02/02 12:57:12;;;;;;;;;;;;;;;;;;5113490;28;19915;-90
2022/02/02 13:00:13;;;;;;;;;;;;;;;;;;5097607;28;19948;-90
2022/02/02 13:02:29;;;;;;;;;;;;;;;;;;5098021;28;19998;-90
2022/02/02 13:04:55;;;;;;;;;;;;;;;;;;5114172;28;19958;-89
2022/02/02 13:07:21;;;;;;;;;;;;;;;;;;5076924;28;19951;-90
2022/02/02 13:09:50;;;;;;;;;;;;;;;;;;5076238;28;19912;-89
2022/02/02 13:12:15;;;;;;;;;;;;;;;;;;5057098;28;19912;-90
2022/02/02 13:14:51;;;;;;;;;;;;;;;;;;5073708;28;19924;-90
2022/02/02 13:17:16;;;;;;;;;;;;;;;;;;5112501;28;20306;-90
2022/02/02 13:19:43;;;;;;;;;;;;;;;;;;5097261;28;20360;-90
2022/02/02 13:22:12;;;;;;;;;;;;;;;;;;5081474;28;19912;-88
2022/02/02 13:24:38;;;;;;;;;;;;;;;;;;5085363;28;19912;-89
2022/02/02 13:27:12;;;;;;;;;;;;;;;;;;5071490;28;19913;-89
2022/02/02 13:29:47;;;;;;;;;;;;;;;;;;5091855;28;19951;-89
2022/02/02 13:32:20;;;;;;;;;;;;;;;;;;5115624;28;19912;-89
2022/02/02 13:35:05;;;;;;;;;;;;;;;;;;5096993;28;19923;-89
2022/02/02 13:42:42;;;;;;;;;;;;;;;;;;5086714;28;19923;-89
2022/02/02 13:48:04;;;;;;;;;;;;;;;;;;5093962;28;19912;-89
2022/02/02 13:53:22;;;;;;;;;;;;;;;;;;5084076;28;19913;-88
2022/02/02 13:56:03;;;;;;;;;;;;;;;;;;5081054;28;19918;-87
2022/02/02 14:01:28;;;;;;;;;;;;;;;;;;5074336;28;19923;-88
2022/02/02 14:33:11;;;;;;;;;;;;;;;;;;5112343;28;19922;-87
2022/02/02 14:35:36;;;;;;;;;;;;;;;;;;5067676;28;19916;-87
2022/02/02 14:38:04;;;;;;;;;;;;;;;;;;5097554;28;19912;-87
2022/02/02 14:40:42;;;;;;;;;;;;;;;;;;5102236;28;19920;-86
2022/02/02 14:43:10;;;;;;;;;;;;;;;;;;5089717;28;20415;-87
2022/02/02 14:45:39;;;;;;;;;;;;;;;;;;5076990;28;19956;-87
2022/02/02 14:48:11;;;;;;;;;;;;;;;;;;5072149;28;19912;-87
2022/02/02 14:50:56;;;;;;;;;;;;;;;;;;5087258;28;19920;-86
2022/02/02 14:53:34;;;;;;;;;;;;;;;;;;5073221;28;19913;-86
2022/02/02 15:31:04;;;;;;;;;;;;;;;;;;5087019;28;19912;-86
2022/02/02 15:33:06;;;;;;;;;;;;;;;;;;5094992;28;20007;-85
2022/02/02 15:35:33;;;;;;;;;;;;;;;;;;5114406;28;19923;-85
2022/02/02 15:40:32;;;;;;;;;;;;;;;;;;5077365;28;20368;-86
2022/02/02 15:58:51;;;;;;;;;;;;;;;;;;5106227;28;19966;-88
2022/02/02 16:04:01;;;;;;;;;;;;;;;;;;5104830;28;19958;-87
2022/02/02 16:06:27;;;;;;;;;;;;;;;;;;5083316;28;20367;-87
2022/02/02 16:09:04;;;;;;;;;;;;;;;;;;5077171;28;20268;-87
2022/02/02 16:11:31;;;;;;;;;;;;;;;;;;5098376;28;19912;-86
2022/02/02 16:14:01;;;;;;;;;;;;;;;;;;5073187;28;20003;-85
2022/02/02 16:18:59;;;;;;;;;;;;;;;;;;5109289;28;19991;-87
2022/02/02 16:32:53;;;;;;;;;;;;;;;;;;5102433;28;19923;-90
2022/02/02 16:37:55;;;;;;;;;;;;;;;;;;5075708;28;19988;-90
2022/02/02 16:40:22;;;;;;;;;;;;;;;;;;5108002;28;19927;-90
2022/02/02 16:45:22;;;;;;;;;;;;;;;;;;5086513;28;19916;-89
2022/02/02 16:47:48;;;;;;;;;;;;;;;;;;5073608;28;20318;-89
2022/02/02 16:50:22;;;;;;;;;;;;;;;;;;5065569;28;20336;-90
2022/02/02 16:52:50;;;;;;;;;;;;;;;;;;5079674;28;19912;-90
2022/02/02 16:55:29;;;;;;;;;;;;;;;;;;5082473;28;19921;-90
2022/02/02 16:58:06;;;;;;;;;;;;;;;;;;5076087;28;19911;-90
2022/02/02 17:24:23;;;;;;;;;;;;;;;;;;5089164;28;20391;-90
2022/02/02 17:33:36;;;;;;;;;;;;;;;;;;5075070;28;19916;-90
2022/02/02 17:38:30;;;;;;;;;;;;;;;;;;5098950;28;20462;-89
2022/02/02 18:20:49;;;;;;;;;;;;;;;;;;5073513;28;19999;-89
2022/02/02 18:23:31;;;;;;;;;;;;;;;;;;5081539;28;20340;-89
2022/02/02 18:28:30;;;;;;;;;;;;;;;;;;5111648;28;19916;-89
2022/02/02 18:31:13;;;;;;;;;;;;;;;;;;5069613;28;19955;-89
2022/02/02 18:46:36;;;;;;;;;;;;;;;;;;5084340;28;20374;-89
2022/02/02 18:49:09;;;;;;;;;;;;;;;;;;5116913;28;19919;-89
2022/02/02 18:57:22;;;;;;;;;;;;;;;;;;5100187;28;20291;-90
2022/02/02 19:38:01;;;;;;;;;;;;;;;;;;5095415;28;19919;-90
2022/02/02 20:07:23;;;;;;;;;;;;;;;;;;5116695;28;20003;-89
2022/02/02 20:12:16;;;;;;;;;;;;;;;;;;5095191;28;19912;-90
2022/02/02 20:14:41;;;;;;;;;;;;;;;;;;5095921;28;19912;-89
2022/02/02 20:17:10;;;;;;;;;;;;;;;;;;5077733;28;19908;-89
2022/02/02 20:19:37;;;;;;;;;;;;;;;;;;5061790;28;20499;-89
2022/02/02 20:22:04;;;;;;;;;;;;;;;;;;5060281;28;19912;-89
2022/02/02 20:24:37;;;;;;;;;;;;;;;;;;5081327;28;19916;-88
2022/02/02 20:27:02;;;;;;;;;;;;;;;;;;5075938;28;20340;-88
2022/02/02 20:29:28;;;;;;;;;;;;;;;;;;5077634;28;19965;-89
2022/02/02 20:31:53;;;;;;;;;;;;;;;;;;5077704;28;19908;-89
2022/02/02 20:34:18;;;;;;;;;;;;;;;;;;5082782;28;19960;-90
2022/02/02 20:36:43;;;;;;;;;;;;;;;;;;5098018;28;19908;-90
2022/02/02 20:39:18;;;;;;;;;;;;;;;;;;5095638;28;19916;-89
2022/02/02 20:41:44;;;;;;;;;;;;;;;;;;5074069;28;19909;-89
2022/02/02 20:44:19;;;;;;;;;;;;;;;;;;5078671;28;20363;-89
2022/02/02 21:00:42;;;;;;;;;;;;;;;;;;5092789;28;20011;-90
2022/02/02 21:11:11;;;;;;;;;;;;;;;;;;5094801;28;19956;-89
2022/02/02 21:13:45;;;;;;;;;;;;;;;;;;5081886;28;19912;-90
2022/02/02 21:16:14;;;;;;;;;;;;;;;;;;5056538;28;19916;-89
2022/02/02 21:18:40;;;;;;;;;;;;;;;;;;5056625;28;20269;-89
2022/02/02 21:21:14;;;;;;;;;;;;;;;;;;5074508;28;20050;-89
2022/02/02 21:27:37;;;;;;;;;;;;;;;;;;5045804;28;20391;-90
2022/02/02 21:29:22;;;;;;;;;;;;;;;;;;5060499;28;20352;-88
2022/02/02 21:31:47;;;;;;;;;;;;;;;;;;5086475;28;20355;-88
2022/02/02 21:34:12;;;;;;;;;;;;;;;;;;5114581;28;19916;-88
2022/02/02 21:36:37;;;;;;;;;;;;;;;;;;5096512;28;19908;-88
2022/02/02 21:39:08;;;;;;;;;;;;;;;;;;5096521;28;19912;-88
2022/02/02 21:41:35;;;;;;;;;;;;;;;;;;5096540;28;19908;-88
2022/02/02 21:44:00;;;;;;;;;;;;;;;;;;5096565;28;20435;-88
2022/02/02 21:46:26;;;;;;;;;;;;;;;;;;5114491;28;19916;-88
2022/02/02 21:48:51;;;;;;;;;;;;;;;;;;5114460;28;19914;-88
2022/02/02 21:51:26;;;;;;;;;;;;;;;;;;5096066;28;19908;-88
2022/02/02 21:53:51;;;;;;;;;;;;;;;;;;5086282;28;19916;-88
2022/02/02 21:56:16;;;;;;;;;;;;;;;;;;5075612;28;19957;-89
2022/02/02 21:58:41;;;;;;;;;;;;;;;;;;5075980;28;19920;-88
2022/02/02 22:01:06;;;;;;;;;;;;;;;;;;5075775;28;20404;-89
2022/02/02 22:03:31;;;;;;;;;;;;;;;;;;5075825;28;19919;-88
2022/02/02 22:05:56;;;;;;;;;;;;;;;;;;5093937;28;19914;-89
2022/02/02 22:08:21;;;;;;;;;;;;;;;;;;5072160;28;19919;-88
2022/02/02 22:10:48;;;;;;;;;;;;;;;;;;5055631;28;19913;-88
2022/02/02 22:13:14;;;;;;;;;;;;;;;;;;5055516;28;19966;-88
2022/02/02 22:15:43;;;;;;;;;;;;;;;;;;5055535;28;19963;-88
2022/02/02 22:18:08;;;;;;;;;;;;;;;;;;5073701;28;20322;-88
2022/02/02 22:20:34;;;;;;;;;;;;;;;;;;5055586;28;19912;-88
2022/02/02 22:22:59;;;;;;;;;;;;;;;;;;5092086;28;19912;-88
2022/02/02 22:25:24;;;;;;;;;;;;;;;;;;5114190;28;19912;-88
2022/02/02 22:27:49;;;;;;;;;;;;;;;;;;5095704;28;19976;-88
2022/02/02 22:30:14;;;;;;;;;;;;;;;;;;5113828;28;19974;-88
2022/02/02 22:32:39;;;;;;;;;;;;;;;;;;5113769;28;20056;-89
2022/02/02 22:35:04;;;;;;;;;;;;;;;;;;5113804;28;20282;-88
2022/02/02 22:37:30;;;;;;;;;;;;;;;;;;5095771;28;19926;-89
2022/02/02 22:39:55;;;;;;;;;;;;;;;;;;5113617;28;20409;-88
2022/02/02 22:42:22;;;;;;;;;;;;;;;;;;5095555;28;19916;-88
2022/02/02 22:44:48;;;;;;;;;;;;;;;;;;5090534;28;20398;-88
2022/02/02 22:47:15;;;;;;;;;;;;;;;;;;5059833;28;19909;-88
2022/02/02 22:49:44;;;;;;;;;;;;;;;;;;5055253;28;19975;-89
2022/02/02 22:52:10;;;;;;;;;;;;;;;;;;5066742;28;20394;-88
2022/02/02 22:54:37;;;;;;;;;;;;;;;;;;5075198;28;20367;-88
2022/02/02 22:57:02;;;;;;;;;;;;;;;;;;5093411;28;19908;-88
2022/02/02 22:59:28;;;;;;;;;;;;;;;;;;5075060;28;19916;-88
2022/02/02 23:02:00;;;;;;;;;;;;;;;;;;5075008;28;19908;-88
2022/02/02 23:04:25;;;;;;;;;;;;;;;;;;5075491;28;19916;-89
2022/02/02 23:06:50;;;;;;;;;;;;;;;;;;5075412;28;19955;-88
2022/02/02 23:09:16;;;;;;;;;;;;;;;;;;5074769;28;19934;-88
2022/02/02 23:11:41;;;;;;;;;;;;;;;;;;5075289;28;19919;-88
2022/02/02 23:14:06;;;;;;;;;;;;;;;;;;5075203;28;20363;-88
2022/02/02 23:16:38;;;;;;;;;;;;;;;;;;5075290;28;19908;-88
2022/02/02 23:19:03;;;;;;;;;;;;;;;;;;5093374;28;20307;-88
2022/02/02 23:21:28;;;;;;;;;;;;;;;;;;5093401;28;19942;-87
2022/02/02 23:23:54;;;;;;;;;;;;;;;;;;5093156;28;19912;-88
2022/02/02 23:26:19;;;;;;;;;;;;;;;;;;5075241;28;20317;-88
2022/02/02 23:28:48;;;;;;;;;;;;;;;;;;5092815;28;19916;-88
2022/02/02 23:31:15;;;;;;;;;;;;;;;;;;5074957;28;19908;-88
2022/02/02 23:33:40;;;;;;;;;;;;;;;;;;5095693;28;19924;-88
2022/02/02 23:36:05;;;;;;;;;;;;;;;;;;5078530;28;20057;-89
2022/02/02 23:38:31;;;;;;;;;;;;;;;;;;5078571;28;20066;-88
2022/02/02 23:43:40;;;;;;;;;;;;;;;;;;5096836;28;19934;-88
2022/02/02 23:46:05;;;;;;;;;;;;;;;;;;5078373;28;19908;-88
2022/02/02 23:48:30;;;;;;;;;;;;;;;;;;5078427;28;19915;-88
2022/02/02 23:50:55;;;;;;;;;;;;;;;;;;5078235;28;19916;-88
2022/02/02 23:53:20;;;;;;;;;;;;;;;;;;5078072;28;19915;-89
2022/02/02 23:55:45;;;;;;;;;;;;;;;;;;5078189;28;19915;-87
2022/02/02 23:58:20;;;;;;;;;;;;;;;;;;5078354;28;20300;-88
